Map

Track Data

SID SEASON NUMBER BASIN SUBBASIN NAME ISO_TIME NATURE LAT LON WMO_WIND WMO_PRES WMO_AGENCY TRACK_TYPE DIST2LAND LANDFALL IFLAG USA_AGENCY USA_ATCF_ID USA_LAT USA_LON USA_RECORD USA_STATUS USA_WIND USA_PRES USA_SSHS USA_R34_NE USA_R34_SE USA_R34_SW USA_R34_NW USA_R50_NE USA_R50_SE USA_R50_SW USA_R50_NW USA_R64_NE USA_R64_SE USA_R64_SW USA_R64_NW USA_POCI USA_ROCI USA_RMW USA_EYE TOKYO_LAT TOKYO_LON TOKYO_GRADE TOKYO_WIND TOKYO_PRES TOKYO_R50_DIR TOKYO_R50_LONG TOKYO_R50_SHORT TOKYO_R30_DIR TOKYO_R30_LONG TOKYO_R30_SHORT TOKYO_LAND CMA_LAT CMA_LON CMA_CAT CMA_WIND CMA_PRES HKO_LAT HKO_LON HKO_CAT HKO_WIND HKO_PRES NEWDELHI_LAT NEWDELHI_LON NEWDELHI_GRADE NEWDELHI_WIND NEWDELHI_PRES NEWDELHI_CI NEWDELHI_DP NEWDELHI_POCI REUNION_LAT REUNION_LON REUNION_TYPE REUNION_WIND REUNION_PRES REUNION_TNUM REUNION_CI REUNION_RMW REUNION_R34_NE REUNION_R34_SE REUNION_R34_SW REUNION_R34_NW REUNION_R50_NE REUNION_R50_SE REUNION_R50_SW REUNION_R50_NW REUNION_R64_NE REUNION_R64_SE REUNION_R64_SW REUNION_R64_NW BOM_LAT BOM_LON BOM_TYPE BOM_WIND BOM_PRES BOM_TNUM BOM_CI BOM_RMW BOM_R34_NE BOM_R34_SE BOM_R34_SW BOM_R34_NW BOM_R50_NE BOM_R50_SE BOM_R50_SW BOM_R50_NW BOM_R64_NE BOM_R64_SE BOM_R64_SW BOM_R64_NW BOM_ROCI BOM_POCI BOM_EYE BOM_POS_METHOD BOM_PRES_METHOD NADI_LAT NADI_LON NADI_CAT NADI_WIND NADI_PRES WELLINGTON_LAT WELLINGTON_LON WELLINGTON_WIND WELLINGTON_PRES DS824_LAT DS824_LON DS824_STAGE DS824_WIND DS824_PRES TD9636_LAT TD9636_LON TD9636_STAGE TD9636_WIND TD9636_PRES TD9635_LAT TD9635_LON TD9635_WIND TD9635_PRES TD9635_ROCI NEUMANN_LAT NEUMANN_LON NEUMANN_CLASS NEUMANN_WIND NEUMANN_PRES MLC_LAT MLC_LON MLC_CLASS MLC_WIND MLC_PRES USA_GUST BOM_GUST BOM_GUST_PER REUNION_GUST REUNION_GUST_PER USA_SEAHGT USA_SEARAD_NE USA_SEARAD_SE USA_SEARAD_SW USA_SEARAD_NW STORM_SPEED STORM_DIR
1896304N12117 1896 45 WP MM NOT_NAMED 1896-10-29 16:00:00 NR 12.3000 116.600 main 328 328 __________O___ -1 12.3000 116.600 7 16 289
1896304N12117 1896 45 WP MM NOT_NAMED 1896-10-29 18:00:00 NR 12.4756 116.078 main 387 397 __________P___ -1 12.4756 116.078 7 16 289
1896304N12117 1896 45 WP MM NOT_NAMED 1896-10-29 21:00:00 NR 12.7284 115.321 main 476 476 __________P___ -1 12.7284 115.321 7 15 289
1896304N12117 1896 45 WP MM NOT_NAMED 1896-10-30 00:00:00 NR 12.9565 114.633 main 550 499 __________P___ -1 12.9565 114.633 7 13 289
1896304N12117 1896 45 WP MM NOT_NAMED 1896-10-30 03:00:00 NR 13.1470 114.059 main 499 478 __________P___ -1 13.1470 114.059 7 11 289
1896304N12117 1896 45 WP MM NOT_NAMED 1896-10-30 04:00:00 NR 13.2000 113.900 main 478 446 __________O___ -1 13.2000 113.900 3 9 289
1896304N12117 1896 45 WP MM NOT_NAMED 1896-10-30 06:00:00 NR 13.2887 113.636 main 446 415 __________P___ -1 13.2887 113.636 3 7 289
1896304N12117 1896 45 WP MM NOT_NAMED 1896-10-30 09:00:00 NR 13.3847 113.347 main 415 394 __________P___ -1 13.3847 113.347 3 5 288
1896304N12117 1896 45 WP MM NOT_NAMED 1896-10-30 12:00:00 NR 13.4474 113.140 main 394 385 __________P___ -1 13.4474 113.140 3 4 286
1896304N12117 1896 45 WP MM NOT_NAMED 1896-10-30 15:00:00 NR 13.4888 112.962 main 385 374 __________P___ -1 13.4888 112.962 3 4 283
1896304N12117 1896 45 WP MM NOT_NAMED 1896-10-30 16:00:00 NR 13.5000 112.900 main 374 363 __________O___ -1 13.5000 112.900 4 4 284
1896304N12117 1896 45 WP MM NOT_NAMED 1896-10-30 18:00:00 NR 13.5410 112.754 main 363 334 __________P___ -1 13.5410 112.754 4 4 284
1896304N12117 1896 45 WP MM NOT_NAMED 1896-10-30 21:00:00 NR 13.5902 112.536 main 334 313 __________P___ -1 13.5902 112.536 4 5 280
1896304N12117 1896 45 WP MM NOT_NAMED 1896-10-31 00:00:00 NR 13.6165 112.297 main 313 281 __________P___ -1 13.6165 112.297 4 5 272
1896304N12117 1896 45 WP MM NOT_NAMED 1896-10-31 03:00:00 NR 13.6107 112.010 main 281 271 __________P___ -1 13.6107 112.010 4 6 268
1896304N12117 1896 45 WP MM NOT_NAMED 1896-10-31 04:00:00 NR 13.6000 111.900 main 271 240 __________O___ -1 13.6000 111.900 4 7 263
1896304N12117 1896 45 WP MM NOT_NAMED 1896-10-31 06:00:00 NR 13.5673 111.640 main 240 196 __________P___ -1 13.5673 111.640 4 8 261
1896304N12117 1896 45 WP MM NOT_NAMED 1896-10-31 09:00:00 NR 13.4868 111.200 main 196 141 __________P___ -1 13.4868 111.200 4 9 258
1896304N12117 1896 45 WP MM NOT_NAMED 1896-10-31 12:00:00 NR 13.3766 110.727 main 141 92 __________P___ -1 13.3766 110.727 4 10 255
1896304N12117 1896 45 WP MM NOT_NAMED 1896-10-31 15:00:00 NR 13.2463 110.253 main 92 73 __________P___ -1 13.2463 110.253 4 10 254
1896304N12117 1896 45 WP MM NOT_NAMED 1896-10-31 16:00:00 NR 13.2000 110.100 main 73 39 __________O___ -1 13.2000 110.100 4 9 252
1896304N12117 1896 45 WP MM NOT_NAMED 1896-10-31 18:00:00 NR 13.1050 109.806 main 39 0 __________P___ -1 13.1050 109.806 4 9 251
1896304N12117 1896 45 WP MM NOT_NAMED 1896-10-31 21:00:00 NR 12.9577 109.392 main 0 0 __________P___ -1 12.9577 109.392 4 8 249
1896304N12117 1896 45 WP MM NOT_NAMED 1896-11-01 00:00:00 NR 12.8061 109.002 main 0 0 __________P___ -1 12.8061 109.002 4 8 248
1896304N12117 1896 45 WP MM NOT_NAMED 1896-11-01 03:00:00 NR 12.6517 108.624 main 0 0 __________P___ -1 12.6517 108.624 4 8 247
1896304N12117 1896 45 WP MM NOT_NAMED 1896-11-01 04:00:00 NR 12.6000 108.500 main 0 __________O___ -1 12.6000 108.500 7 8 247

Digital Typhoon Data and Search

About IBTrACS Database

This database is a web-friendly format of International Best Track Archive for Climate Stewardship (IBTrACS), a global best track data archive curated by NOAA dating back to 1842.

Updated: 2021-10-27